Time;durP1;ratioP1;P1;durP2;ratioP2;P2;SDS_P1;SDS_P2;PMS_P1;PMS_P2;Temp;Humidity;BMP_temperature;BMP_pressure;BME280_temperature;BME280_humidity;BME280_pressure;Samples;Min_cycle;Max_cycle;Signal;HPM_P1;HPM_P2
2023/05/21 00:02:17;;;;;;;7.85;4.45;;;15.10;99.90;;;15.33;100.00;101035.13;5127468;28;20118;-71
2023/05/21 00:04:50;;;;;;;8.00;4.20;;;15.00;99.90;;;15.31;100.00;101023.66;5146032;28;20039;-73
2023/05/21 00:07:24;;;;;;;8.95;4.38;;;15.00;99.90;;;15.29;100.00;101028.03;5141733;28;20507;-73
2023/05/21 00:09:56;;;;;;;7.60;3.58;;;15.00;99.90;;;15.28;100.00;101028.88;5139682;28;20049;-72
2023/05/21 00:12:28;;;;;;;8.25;4.47;;;15.00;99.90;;;15.26;100.00;101022.72;5141522;28;20038;-72
2023/05/21 00:15:01;;;;;;;8.52;4.93;;;15.00;99.90;;;15.25;100.00;101020.94;5141002;28;20045;-72
2023/05/21 00:17:35;;;;;;;7.70;4.35;;;15.00;99.90;;;15.21;100.00;101013.88;5144283;28;20039;-71
2023/05/21 00:20:08;;;;;;;8.30;4.65;;;14.90;99.90;;;15.20;100.00;101012.97;5148009;28;20039;-71
2023/05/21 00:22:42;;;;;;;9.02;5.10;;;14.90;99.90;;;15.17;100.00;101009.41;5140578;28;20458;-73
2023/05/21 00:25:14;;;;;;;9.10;4.65;;;14.90;99.90;;;15.14;100.00;101001.47;5141723;28;20050;-72
2023/05/21 00:27:46;;;;;;;7.95;4.30;;;14.90;99.90;;;15.10;100.00;101005.78;5142386;28;20069;-70
2023/05/21 00:30:18;;;;;;;7.10;4.20;;;14.80;99.90;;;15.07;100.00;100996.97;5128770;28;20582;-71
2023/05/21 00:32:50;;;;;;;7.65;4.13;;;14.80;99.90;;;15.03;100.00;100998.63;5141350;28;20034;-72
2023/05/21 00:35:23;;;;;;;8.20;4.93;;;14.80;99.90;;;15.00;100.00;100990.72;5123481;28;20059;-71
2023/05/21 00:37:56;;;;;;;9.45;4.85;;;14.70;99.90;;;14.98;100.00;100991.50;5124027;28;20051;-71
2023/05/21 00:40:28;;;;;;;9.52;4.70;;;14.70;99.90;;;14.94;100.00;100993.22;5140982;28;20390;-72
2023/05/21 00:43:00;;;;;;;8.98;4.70;;;14.70;99.90;;;14.92;100.00;100997.53;5124506;28;20051;-70
2023/05/21 00:45:35;;;;;;;9.38;4.68;;;14.70;99.90;;;14.89;100.00;100987.84;5142885;28;20113;-71
2023/05/21 00:48:08;;;;;;;8.70;4.45;;;14.60;99.90;;;14.87;100.00;100981.69;5127562;28;20070;-71
2023/05/21 00:50:40;;;;;;;8.48;4.55;;;14.60;99.90;;;14.84;100.00;100981.63;5127111;28;20433;-71
2023/05/21 00:53:16;;;;;;;9.52;4.75;;;14.60;99.90;;;14.82;100.00;100987.72;5126732;28;20038;-71
2023/05/21 00:55:50;;;;;;;9.52;4.78;;;14.60;99.90;;;14.81;100.00;100992.06;5144697;28;20049;-71
2023/05/21 00:58:22;;;;;;;8.98;4.50;;;14.50;99.90;;;14.80;100.00;100979.81;5127741;28;20046;-73
2023/05/21 01:00:55;;;;;;;9.07;4.63;;;14.50;99.90;;;14.77;100.00;100987.59;5145761;28;20046;-72
2023/05/21 01:03:28;;;;;;;10.00;4.60;;;14.50;99.90;;;14.74;100.00;100982.31;5141081;28;20042;-73
2023/05/21 01:06:00;;;;;;;8.90;5.15;;;14.50;99.90;;;14.71;100.00;100983.97;5120605;28;20043;-71
2023/05/21 01:08:35;;;;;;;9.05;4.78;;;14.50;99.90;;;14.67;100.00;100977.78;5143737;28;20043;-72
2023/05/21 01:11:09;;;;;;;11.02;5.20;;;14.40;99.90;;;14.65;100.00;100976.84;5135865;28;20043;-72
2023/05/21 01:13:42;;;;;;;;;;;14.40;99.90;;;14.65;100.00;100985.59;5145585;28;20043;-71
2023/05/21 01:16:16;;;;;;;8.85;4.40;;;14.40;99.90;;;14.64;100.00;100982.94;5145295;28;19929;-72
2023/05/21 01:18:48;;;;;;;9.13;4.53;;;14.40;99.90;;;14.63;100.00;100976.81;5135187;28;20064;-72
2023/05/21 01:21:24;;;;;;;8.75;4.70;;;14.40;99.90;;;14.62;100.00;100974.16;5128066;28;20046;-72
2023/05/21 01:23:57;;;;;;;9.27;4.18;;;14.40;99.90;;;14.59;100.00;100974.09;5144057;28;20035;-71
2023/05/21 01:26:29;;;;;;;9.43;4.53;;;14.40;99.90;;;14.56;100.00;100974.03;5143412;28;20058;-72
2023/05/21 01:29:02;;;;;;;10.82;5.28;;;14.40;99.90;;;14.55;100.00;100973.16;5127420;28;20047;-72
2023/05/21 01:31:45;;;;;;;9.68;4.20;;;14.30;99.90;;;14.53;100.00;100968.72;5127063;28;20067;-72
2023/05/21 01:34:31;;;;;;;8.23;4.38;;;14.30;99.90;;;14.49;100.00;100970.41;5143689;28;20054;-72
2023/05/21 01:37:14;;;;;;;8.57;4.47;;;14.30;99.90;;;14.48;100.00;100970.38;5143856;28;20054;-73
2023/05/21 01:39:54;;;;;;;9.18;4.30;;;14.20;99.90;;;14.45;100.00;100970.25;5151151;28;20136;-71
2023/05/21 01:42:29;;;;;;;8.30;4.40;;;14.20;99.90;;;14.44;100.00;100973.72;5127286;28;20042;-71
2023/05/21 01:45:05;;;;;;;7.25;3.92;;;14.20;99.90;;;14.42;100.00;100968.47;5135785;28;20121;-71
2023/05/21 01:47:38;;;;;;;8.15;4.05;;;14.20;99.90;;;14.40;100.00;100957.91;5144767;28;20726;-72
2023/05/21 01:50:11;;;;;;;8.40;4.07;;;14.20;99.90;;;14.40;100.00;100965.78;5148282;28;20142;-72
2023/05/21 01:52:50;;;;;;;9.07;4.63;;;14.10;99.90;;;14.39;100.00;100966.63;5129340;28;20523;-72
2023/05/21 01:55:24;;;;;;;8.52;4.43;;;14.20;99.90;;;14.37;100.00;100973.59;5150146;28;20482;-73
2023/05/21 01:57:58;;;;;;;7.65;4.40;;;14.10;99.90;;;14.38;100.00;100964.00;5129439;28;20038;-71
2023/05/21 02:00:31;;;;;;;9.45;4.85;;;14.20;99.90;;;14.35;100.00;100970.06;5147431;28;20101;-73
2023/05/21 02:03:06;;;;;;;9.13;4.93;;;14.20;99.90;;;14.34;100.00;100973.53;5135631;28;20097;-71
2023/05/21 02:05:38;;;;;;;9.48;4.63;;;14.10;99.90;;;14.32;100.00;100967.34;5126815;28;20510;-71
2023/05/21 02:08:11;;;;;;;9.32;5.00;;;14.10;99.90;;;14.31;100.00;100967.34;5144205;28;20039;-71
2023/05/21 02:10:45;;;;;;;8.55;3.95;;;14.10;99.90;;;14.29;100.00;100963.81;5127973;28;20054;-72
2023/05/21 02:13:19;;;;;;;8.43;4.65;;;14.10;99.90;;;14.29;100.00;100963.81;5148867;28;20046;-72
2023/05/21 02:15:53;;;;;;;9.48;4.95;;;14.10;99.90;;;14.28;100.00;100965.53;5139945;28;20053;-71
2023/05/21 02:18:28;;;;;;;9.32;4.72;;;14.00;99.90;;;14.27;100.00;100966.38;5126325;28;20042;-71
2023/05/21 02:21:00;;;;;;;9.02;4.30;;;14.00;99.90;;;14.27;100.00;100961.13;5126404;28;20050;-72
2023/05/21 02:23:32;;;;;;;10.70;4.57;;;14.10;99.90;;;14.26;100.00;100958.47;5126567;28;20039;-72
2023/05/21 02:26:05;;;;;;;8.35;4.25;;;14.00;99.90;;;14.24;100.00;100958.44;5144116;28;20101;-72
2023/05/21 02:28:39;;;;;;;9.18;4.25;;;14.00;99.90;;;14.24;100.00;100960.19;5123113;28;20066;-72
2023/05/21 02:31:11;;;;;;;11.23;5.35;;;14.00;99.90;;;14.23;100.00;100954.06;5142781;28;20047;-71
2023/05/21 02:33:43;;;;;;;8.98;4.70;;;14.00;99.90;;;14.24;100.00;100949.69;5126286;28;20126;-71
2023/05/21 02:36:17;;;;;;;9.02;4.38;;;14.00;99.90;;;14.23;100.00;100950.56;5142873;28;20074;-72
2023/05/21 02:38:50;;;;;;;10.43;4.78;;;14.00;99.90;;;14.21;100.00;100950.50;5134080;28;20038;-71
2023/05/21 02:41:23;;;;;;;9.35;4.60;;;14.00;99.90;;;14.19;100.00;100952.19;5126814;28;20137;-71
2023/05/21 02:43:55;;;;;;;9.82;5.03;;;14.00;99.90;;;14.20;100.00;100959.22;5126130;28;20049;-71
2023/05/21 02:46:27;;;;;;;9.35;4.78;;;14.00;99.90;;;14.21;100.00;100957.47;5126625;28;20046;-72
2023/05/21 02:48:59;;;;;;;8.27;4.32;;;14.00;99.90;;;14.22;100.00;100948.78;5125605;28;20054;-71
2023/05/21 02:51:32;;;;;;;9.68;4.78;;;14.00;99.90;;;14.24;100.00;100950.56;5126134;28;20491;-71
2023/05/21 02:54:04;;;;;;;10.45;4.68;;;14.00;99.90;;;14.25;100.00;100947.09;5135805;28;20046;-72
2023/05/21 02:56:37;;;;;;;8.98;4.60;;;14.00;99.90;;;14.26;100.00;100947.97;5125958;28;20129;-70
2023/05/21 02:59:10;;;;;;;9.48;4.65;;;14.10;99.90;;;14.28;100.00;100946.28;5125697;28;20049;-71
2023/05/21 03:01:43;;;;;;;9.27;4.55;;;14.00;99.90;;;14.31;100.00;100948.97;5126066;28;20062;-71
2023/05/21 03:04:17;;;;;;;8.95;4.65;;;14.00;99.90;;;14.32;100.00;100941.13;5133680;28;20529;-71
2023/05/21 03:06:50;;;;;;;9.68;5.15;;;14.10;99.90;;;14.33;100.00;100936.78;5125608;28;20162;-73
2023/05/21 03:09:22;;;;;;;10.02;4.82;;;14.10;99.90;;;14.34;100.00;100939.47;5142401;28;20125;-71
2023/05/21 03:11:56;;;;;;;9.70;4.63;;;14.10;99.90;;;14.36;100.00;100939.47;5125699;28;20061;-72
2023/05/21 03:14:28;;;;;;;11.25;5.43;;;14.10;99.90;;;14.36;100.00;100942.09;5125703;28;20054;-71
2023/05/21 03:17:02;;;;;;;11.27;5.13;;;14.10;99.90;;;14.37;100.00;100934.25;5125596;28;20038;-72
2023/05/21 03:19:35;;;;;;;9.30;4.57;;;14.10;99.90;;;14.37;100.00;100931.63;5142417;28;20463;-73
2023/05/21 03:22:10;;;;;;;8.68;4.70;;;14.10;99.90;;;14.39;100.00;100932.53;5118382;28;20129;-71
2023/05/21 03:24:43;;;;;;;10.68;4.75;;;14.20;99.90;;;14.40;100.00;100931.69;5141577;28;20472;-72
2023/05/21 03:27:17;;;;;;;10.48;4.93;;;14.20;99.90;;;14.42;100.00;100928.25;5142915;28;20050;-71
2023/05/21 03:29:50;;;;;;;;;;;14.20;99.90;;;14.40;100.00;100931.69;5125994;28;20113;-71
2023/05/21 03:32:23;;;;;;;8.88;4.90;;;14.20;99.90;;;14.41;100.00;100932.59;5125835;28;19925;-72
2023/05/21 03:34:56;;;;;;;8.32;4.55;;;14.20;99.90;;;14.42;100.00;100929.13;5133511;28;20133;-72
2023/05/21 03:37:29;;;;;;;8.50;4.32;;;14.20;99.90;;;14.43;100.00;100924.75;5133359;28;20051;-72
2023/05/21 03:40:02;;;;;;;8.27;4.57;;;14.20;99.90;;;14.43;100.00;100930.88;5141008;28;20455;-71
2023/05/21 03:42:36;;;;;;;9.63;4.80;;;14.20;99.90;;;14.43;100.00;100936.13;5125050;28;20058;-72
2023/05/21 03:45:10;;;;;;;8.82;4.72;;;14.20;99.90;;;14.44;100.00;100931.78;5125589;28;20046;-72
2023/05/21 03:48:00;;;;;;;9.32;4.57;;;14.20;99.90;;;14.44;100.00;100932.66;5142773;28;20042;-71
2023/05/21 03:50:33;;;;;;;8.45;4.55;;;14.20;99.90;;;14.45;100.00;100933.53;5125088;28;20130;-72
2023/05/21 03:53:05;;;;;;;7.72;4.35;;;14.20;99.90;;;14.45;100.00;100930.91;5125471;28;20053;-71
2023/05/21 03:55:39;;;;;;;9.32;4.63;;;14.20;99.90;;;14.46;100.00;100927.44;5125169;28;20050;-72
2023/05/21 03:58:12;;;;;;;10.88;4.63;;;14.20;99.90;;;14.45;100.00;100925.66;5141036;28;20031;-72
2023/05/21 04:00:45;;;;;;;9.43;4.43;;;14.20;99.90;;;14.47;100.00;100926.59;5124649;28;20511;-71
2023/05/21 04:03:17;;;;;;;9.35;4.80;;;14.20;99.90;;;14.48;100.00;100924.03;5125358;28;20049;-71
2023/05/21 04:05:49;;;;;;;8.57;4.18;;;14.20;99.90;;;14.48;100.00;100921.41;5124906;28;20542;-73
2023/05/21 04:08:22;;;;;;;8.18;4.15;;;14.30;99.90;;;14.48;100.00;100917.91;5124905;28;20047;-71
2023/05/21 04:10:54;;;;;;;8.27;4.20;;;14.20;99.90;;;14.47;100.00;100919.63;5124816;28;20046;-72
2023/05/21 04:13:28;;;;;;;9.77;5.03;;;14.20;99.90;;;14.47;100.00;100918.75;5124924;28;20038;-72
2023/05/21 04:16:00;;;;;;;8.05;4.22;;;14.20;99.90;;;14.49;100.00;100922.31;5152323;23;20042;-70
2023/05/21 04:18:33;;;;;;;8.68;4.50;;;14.20;99.90;;;14.49;100.00;100915.31;5157168;28;20494;-71
2023/05/21 04:21:06;;;;;;;8.75;4.55;;;14.30;99.90;;;14.51;100.00;100929.34;5147675;28;20546;-70
2023/05/21 04:23:38;;;;;;;8.95;4.35;;;14.30;99.90;;;14.52;100.00;100920.63;5158148;28;20106;-70
2023/05/21 04:26:17;;;;;;;8.18;4.72;;;14.30;99.90;;;14.53;100.00;100925.00;5148658;28;20054;-70
2023/05/21 04:28:54;;;;;;;8.20;4.20;;;14.30;99.90;;;14.55;100.00;100923.31;5148550;28;20056;-71
2023/05/21 04:31:27;;;;;;;7.57;4.07;;;14.30;99.90;;;14.57;100.00;100939.09;5149237;28;20442;-70
2023/05/21 04:33:59;;;;;;;10.05;4.53;;;14.30;99.90;;;14.57;100.00;100931.22;5148731;28;20073;-70
2023/05/21 04:36:32;;;;;;;8.13;4.45;;;14.30;99.90;;;14.57;100.00;100936.47;5149121;28;20074;-69
2023/05/21 04:39:05;;;;;;;8.60;4.60;;;14.30;99.90;;;14.57;100.00;100939.09;5148623;28;20038;-70
2023/05/21 04:41:37;;;;;;;7.97;4.50;;;14.30;99.90;;;14.59;100.00;100942.59;5148724;28;20055;-70
2023/05/21 04:44:13;;;;;;;7.97;4.05;;;14.40;99.90;;;14.59;100.00;100947.84;5158321;28;20034;-70
2023/05/21 04:46:47;;;;;;;7.40;4.15;;;14.40;99.90;;;14.60;100.00;100952.25;5165364;28;20495;-70
2023/05/21 04:49:20;;;;;;;9.45;4.95;;;14.40;99.90;;;14.61;100.00;100943.53;5148407;28;20141;-70
2023/05/21 04:51:52;;;;;;;8.95;4.22;;;14.40;99.90;;;14.63;100.00;100947.06;5148340;28;20537;-70
2023/05/21 04:54:25;;;;;;;8.77;5.03;;;14.40;99.90;;;14.64;100.00;100946.22;5148736;28;20047;-70
2023/05/21 04:56:57;;;;;;;8.25;4.28;;;14.40;99.90;;;14.65;100.00;100947.97;5156605;28;20057;-69
2023/05/21 04:59:30;;;;;;;9.10;4.57;;;14.40;99.90;;;14.69;100.00;100939.34;5147868;28;20450;-70
2023/05/21 05:02:03;;;;;;;8.23;4.22;;;14.40;99.90;;;14.71;100.00;100948.09;5174034;28;20053;-71
2023/05/21 05:04:35;;;;;;;7.25;3.83;;;14.40;99.90;;;14.74;100.00;100949.94;5148244;28;20545;-70
2023/05/21 05:07:07;;;;;;;8.85;4.60;;;14.50;99.90;;;14.76;100.00;100945.59;5148391;28;20049;-70
2023/05/21 05:09:39;;;;;;;7.50;4.03;;;14.50;99.90;;;14.77;100.00;100943.00;5148085;28;20499;-70
2023/05/21 05:12:12;;;;;;;8.30;4.25;;;14.50;99.90;;;14.80;100.00;100950.94;5140963;28;20049;-70
2023/05/21 05:14:46;;;;;;;8.57;4.32;;;14.50;99.90;;;14.82;100.00;100941.34;5164922;28;20049;-70
2023/05/21 05:17:18;;;;;;;7.90;4.50;;;14.60;99.90;;;14.85;100.00;100941.41;5148450;28;20050;-70
2023/05/21 05:19:51;;;;;;;7.55;4.03;;;14.60;99.90;;;14.88;100.00;100937.97;5147865;28;20052;-70
2023/05/21 05:22:24;;;;;;;7.63;4.28;;;14.60;99.90;;;14.91;100.00;100954.63;5155778;28;20046;-70
2023/05/21 05:24:56;;;;;;;8.63;4.05;;;14.70;99.90;;;14.95;100.00;100945.09;5147697;28;20061;-70
2023/05/21 05:27:28;;;;;;;6.40;4.00;;;14.70;99.90;;;15.00;100.00;100945.19;5148250;28;20065;-70
2023/05/21 05:30:02;;;;;;;7.32;3.70;;;14.70;99.90;;;15.04;100.00;100941.75;5147080;28;20381;-70
2023/05/21 05:32:36;;;;;;;7.20;4.00;;;14.80;99.90;;;15.08;100.00;100938.34;5147571;28;20141;-70
2023/05/21 05:35:10;;;;;;;7.97;4.00;;;14.80;99.90;;;15.11;100.00;100938.38;5147393;28;20069;-70
2023/05/21 05:37:42;;;;;;;8.23;4.05;;;14.80;99.90;;;15.13;100.00;100937.59;5148000;28;20049;-69
2023/05/21 05:40:14;;;;;;;8.85;3.95;;;14.80;99.90;;;15.16;100.00;100931.47;5147890;28;20562;-69
2023/05/21 05:42:48;;;;;;;6.97;3.70;;;14.90;99.90;;;15.19;100.00;100931.53;5165309;28;20053;-67
2023/05/21 05:45:22;;;;;;;;;;;14.90;99.90;;;15.22;100.00;100942.09;5147309;28;20044;-67
2023/05/21 05:47:54;;;;;;;7.43;3.80;;;14.90;99.90;;;15.24;100.00;100937.75;5146595;28;20406;-67
2023/05/21 05:50:27;;;;;;;7.95;3.83;;;15.00;99.90;;;15.30;100.00;100934.34;5147209;28;20046;-68
2023/05/21 05:52:59;;;;;;;8.93;4.60;;;15.00;99.90;;;15.33;100.00;100937.94;5163662;28;20240;-68
2023/05/21 05:55:31;;;;;;;7.07;4.43;;;15.10;99.90;;;15.39;100.00;100934.53;5147464;28;20214;-68
2023/05/21 05:58:04;;;;;;;7.88;3.92;;;15.10;99.90;;;15.45;100.00;100932.91;5147189;28;20049;-69
2023/05/21 06:00:39;;;;;;;6.57;3.83;;;15.20;99.90;;;15.51;100.00;100923.31;5146796;28;20530;-68
2023/05/21 06:03:12;;;;;;;8.60;4.10;;;15.20;99.90;;;15.59;100.00;100932.25;5163480;28;20223;-60
2023/05/21 06:05:44;;;;;;;6.75;3.95;;;15.30;99.90;;;15.69;100.00;100934.19;5146810;28;20081;-64
2023/05/21 06:08:16;;;;;;;7.32;4.00;;;15.40;99.90;;;15.75;100.00;100929.03;5146695;28;20133;-65
2023/05/21 06:10:48;;;;;;;7.00;3.85;;;15.40;99.90;;;15.82;100.00;100938.78;5146200;28;20050;-64
2023/05/21 06:13:20;;;;;;;8.75;4.22;;;15.50;99.90;;;15.88;100.00;100936.25;5146388;28;20034;-64
2023/05/21 06:15:54;;;;;;;8.07;4.20;;;15.50;99.90;;;15.92;100.00;100930.19;5163222;28;20092;-64
2023/05/21 06:18:26;;;;;;;7.38;3.80;;;15.60;99.90;;;15.97;100.00;100928.50;5164012;28;20053;-63
2023/05/21 06:20:58;;;;;;;8.05;3.80;;;15.60;99.90;;;16.08;100.00;100939.16;5163711;28;20100;-63
2023/05/21 06:23:35;;;;;;;7.22;3.53;;;15.70;99.90;;;16.17;100.00;100941.94;5146921;28;20104;-63
2023/05/21 06:26:07;;;;;;;7.45;4.22;;;15.80;99.90;;;16.26;100.00;100933.28;5175540;28;20092;-63
2023/05/21 06:28:40;;;;;;;7.82;4.13;;;15.80;99.90;;;16.34;100.00;100939.53;5167135;28;20068;-63
2023/05/21 06:31:15;;;;;;;8.70;4.72;;;15.90;99.90;;;16.44;100.00;100930.91;5145926;28;20038;-63
2023/05/21 06:33:50;;;;;;;7.65;4.53;;;16.00;99.90;;;16.55;100.00;100931.91;5146112;28;20046;-64
2023/05/21 06:36:24;;;;;;;9.35;5.00;;;16.10;99.90;;;16.65;100.00;100932.03;5146189;28;20054;-63
2023/05/21 06:38:57;;;;;;;9.02;4.97;;;16.20;99.90;;;16.74;100.00;100942.72;5145606;28;20292;-62
2023/05/21 06:41:30;;;;;;;9.55;4.57;;;16.30;99.90;;;16.85;100.00;100935.81;5145900;28;20042;-63
2023/05/21 06:44:05;;;;;;;12.95;5.65;;;16.40;99.90;;;16.98;100.00;100937.72;5144853;28;20046;-63
2023/05/21 06:46:50;;;;;;;8.55;4.38;;;16.50;99.90;;;17.11;100.00;100943.13;5163058;28;20503;-63
2023/05/21 06:49:25;;;;;;;7.97;4.53;;;16.60;99.90;;;17.19;100.00;100944.09;5145696;28;20038;-63
2023/05/21 06:51:58;;;;;;;8.98;4.63;;;16.70;99.90;;;17.29;100.00;100945.97;5145671;28;20132;-62
2023/05/21 06:54:30;;;;;;;8.77;4.65;;;16.80;99.90;;;17.41;100.00;100953.97;5163405;28;20042;-62
2023/05/21 06:57:02;;;;;;;9.30;4.97;;;16.90;99.90;;;17.52;100.00;100951.44;5145684;28;20307;-62
2023/05/21 06:59:36;;;;;;;10.07;5.13;;;17.00;99.90;;;17.55;100.00;100947.09;5144874;28;20038;-63
2023/05/21 07:02:10;;;;;;;8.80;4.45;;;17.10;99.90;;;17.60;100.00;100950.66;5145848;28;20042;-62
2023/05/21 07:04:42;;;;;;;9.20;4.78;;;17.10;99.90;;;17.72;100.00;100955.16;5145481;28;20124;-63
2023/05/21 07:07:14;;;;;;;9.05;4.90;;;17.20;99.90;;;17.89;100.00;100955.28;5145585;28;20052;-63
2023/05/21 07:09:46;;;;;;;8.73;5.00;;;17.30;99.90;;;18.09;100.00;100955.44;5145428;28;20050;-63
2023/05/21 07:12:18;;;;;;;9.90;5.03;;;17.50;99.90;;;18.12;100.00;100956.31;5145716;28;20174;-63
2023/05/21 07:14:50;;;;;;;9.60;4.80;;;17.60;99.90;;;18.20;100.00;100959.03;5154009;28;20045;-61
2023/05/21 07:17:24;;;;;;;7.88;4.43;;;17.60;99.90;;;18.30;100.00;100954.66;5152543;28;20058;-63
2023/05/21 07:19:56;;;;;;;9.07;4.85;;;17.70;99.90;;;18.49;100.00;100950.38;5145406;28;20096;-63
2023/05/21 07:22:29;;;;;;;10.02;5.18;;;17.80;99.90;;;18.70;100.00;100948.75;5153661;28;20077;-64
2023/05/21 07:25:01;;;;;;;10.98;5.13;;;18.00;99.90;;;18.94;100.00;100949.72;5153481;28;20045;-64
2023/05/21 07:27:33;;;;;;;11.25;5.63;;;18.20;99.90;;;19.22;100.00;100951.53;5153762;28;20046;-63
2023/05/21 07:30:09;;;;;;;9.45;5.22;;;18.50;99.90;;;19.67;100.00;100946.31;5145584;28;20042;-63
2023/05/21 07:32:42;;;;;;;9.02;4.78;;;18.80;99.90;;;19.99;100.00;100952.47;5130553;28;20545;-64
2023/05/21 07:35:14;;;;;;;8.90;5.10;;;19.10;99.90;;;20.30;100.00;100948.03;5145849;28;20133;-64
2023/05/21 07:37:46;;;;;;;8.93;5.13;;;19.40;99.90;;;20.65;99.11;100949.69;5163323;28;20108;-64
2023/05/21 07:40:19;;;;;;;9.18;4.93;;;19.70;99.90;;;20.96;95.23;100944.25;5167195;28;20072;-64
2023/05/21 07:42:52;;;;;;;9.55;4.90;;;20.00;99.90;;;21.21;94.50;100950.28;5145157;28;20046;-63
2023/05/21 07:45:25;;;;;;;9.95;4.80;;;20.20;99.90;;;21.33;91.81;100945.81;5145008;28;20407;-61
2023/05/21 07:47:59;;;;;;;8.57;4.80;;;20.40;99.90;;;21.61;92.31;100945.63;5145293;28;20057;-61
2023/05/21 07:50:33;;;;;;;10.73;5.18;;;20.60;99.90;;;21.89;91.63;100957.75;5145337;28;20125;-62
2023/05/21 07:53:05;;;;;;;7.95;4.32;;;20.90;99.90;;;22.13;89.76;100958.44;5145334;28;20050;-62
2023/05/21 07:55:37;;;;;;;9.50;5.40;;;21.10;99.90;;;22.12;87.80;100959.34;5145611;28;20046;-62
2023/05/21 07:58:10;;;;;;;8.15;4.57;;;21.10;99.90;;;22.09;88.11;100959.34;5145702;28;20041;-63
2023/05/21 08:00:46;;;;;;;8.30;4.40;;;21.10;99.90;;;22.22;88.58;100955.69;5144983;28;20124;-62
2023/05/21 08:03:19;;;;;;;8.30;4.55;;;21.20;99.90;;;22.42;87.98;100959.00;5145588;28;20042;-63
2023/05/21 08:05:52;;;;;;;8.60;4.97;;;21.30;99.90;;;22.64;87.56;100954.34;5145543;28;20100;-64
2023/05/21 08:08:24;;;;;;;9.27;4.93;;;21.40;99.90;;;22.78;85.93;100958.59;5160964;28;20049;-65
2023/05/21 08:10:59;;;;;;;7.32;4.40;;;21.60;99.90;;;22.73;86.58;100942.69;5138341;28;20047;-64
2023/05/21 08:13:32;;;;;;;10.82;5.30;;;21.50;99.90;;;22.43;86.10;100954.56;5145236;28;20129;-65
2023/05/21 08:16:06;;;;;;;9.50;4.75;;;21.40;99.60;;;22.01;86.51;100956.75;5144801;28;20565;-63
2023/05/21 08:18:40;;;;;;;9.52;4.65;;;21.10;99.50;;;21.64;88.90;100953.53;5144859;28;20089;-66
2023/05/21 08:21:12;;;;;;;10.35;5.13;;;20.80;99.90;;;21.44;89.61;100956.34;5143390;28;20042;-66
2023/05/21 08:23:45;;;;;;;11.52;4.97;;;20.60;99.90;;;21.29;90.60;100949.38;5144425;28;20050;-65
2023/05/21 08:26:17;;;;;;;7.22;4.10;;;20.50;99.90;;;21.31;91.30;100946.72;5161928;28;20499;-65
2023/05/21 08:28:49;;;;;;;7.70;4.45;;;20.40;99.90;;;21.28;90.94;100947.63;5147927;28;20046;-66
2023/05/21 08:31:21;;;;;;;7.40;4.13;;;20.40;99.90;;;21.21;90.62;100937.91;5140646;28;20145;-64
2023/05/21 08:33:57;;;;;;;8.73;4.90;;;20.30;99.90;;;21.19;90.90;100929.09;5144421;28;20047;-64
2023/05/21 08:36:44;;;;;;;10.27;4.70;;;20.30;99.90;;;21.27;90.73;100924.63;5139203;28;20046;-66
2023/05/21 08:39:36;;;;;;;8.18;4.78;;;20.40;99.90;;;21.33;90.74;100929.91;5143934;28;20045;-65
2023/05/21 08:42:19;;;;;;;10.25;5.00;;;20.40;99.90;;;21.65;90.27;100928.78;5144275;28;20096;-65
2023/05/21 08:44:54;;;;;;;9.48;4.88;;;20.60;99.90;;;22.23;89.14;100933.53;5144020;28;20507;-65
2023/05/21 08:47:32;;;;;;;7.72;4.40;;;20.90;99.90;;;22.57;86.73;100925.22;5160056;28;20419;-65
2023/05/21 08:50:10;;;;;;;8.43;5.07;;;21.20;99.90;;;22.69;86.19;100914.38;5143966;28;20109;-66
2023/05/21 08:52:42;;;;;;;8.65;4.95;;;21.40;99.90;;;22.98;85.64;100930.88;5162174;28;20049;-65
2023/05/21 08:55:16;;;;;;;7.78;4.60;;;21.50;99.80;;;23.39;84.36;100924.03;5144214;28;20052;-64
2023/05/21 08:57:49;;;;;;;8.40;5.22;;;21.80;99.40;;;23.81;83.59;100929.59;5144651;28;20149;-65
2023/05/21 09:00:23;;;;;;;8.18;4.72;;;22.20;99.20;;;24.23;81.92;100921.72;5143795;28;20050;-66
2023/05/21 09:02:59;;;;;;;9.80;5.10;;;22.50;98.60;;;24.39;80.48;100927.66;5144311;28;20042;-65
2023/05/21 09:05:35;;;;;;;8.32;4.90;;;22.70;97.80;;;24.48;79.71;100932.81;5144589;28;20061;-65
2023/05/21 09:08:13;;;;;;;7.40;4.63;;;22.80;97.10;;;25.01;79.85;100926.31;5147918;28;20125;-66
2023/05/21 09:11:12;;;;;;;10.07;4.95;;;23.10;97.30;;;26.12;77.32;100932.50;5163223;28;20054;-67
2023/05/21 09:13:51;;;;;;;8.48;4.88;;;23.80;96.70;;;27.00;73.06;100927.28;5147625;28;20391;-64
2023/05/21 09:16:30;;;;;;;8.35;4.47;;;24.60;94.70;;;27.33;71.73;100929.84;5144799;28;20054;-66
2023/05/21 09:19:02;;;;;;;8.50;4.82;;;25.00;93.20;;;27.52;70.36;100930.13;5147088;28;20057;-66
2023/05/21 09:21:40;;;;;;;6.93;4.28;;;25.30;91.80;;;27.64;70.13;100927.03;5147757;28;20065;-66
2023/05/21 09:24:22;;;;;;;8.55;4.80;;;25.50;91.00;;;27.63;70.12;100933.31;5147662;28;20046;-66
2023/05/21 09:26:57;;;;;;;6.07;4.20;;;25.70;90.50;;;27.57;70.20;100928.16;5147556;28;20069;-66
2023/05/21 09:29:29;;;;;;;7.28;4.57;;;25.90;90.10;;;27.31;70.42;100927.22;5146650;28;20100;-66
2023/05/21 09:32:07;;;;;;;7.75;4.50;;;25.80;88.80;;;27.09;70.48;100928.84;5147405;28;20046;-65
2023/05/21 09:34:41;;;;;;;11.07;5.10;;;25.80;87.90;;;26.79;70.58;100928.81;5147136;28;20140;-64
2023/05/21 09:37:16;;;;;;;8.23;4.63;;;25.60;87.20;;;26.50;70.93;100929.69;5147389;28;20050;-65
2023/05/21 09:39:48;;;;;;;9.25;4.80;;;25.40;86.60;;;26.34;72.37;100924.78;5146944;28;20053;-64
2023/05/21 09:42:21;;;;;;;8.02;5.00;;;25.20;87.90;;;26.02;72.51;100923.88;5147700;28;20266;-66
2023/05/21 09:44:54;;;;;;;9.57;5.32;;;25.10;87.80;;;25.87;73.38;100918.94;5146651;28;20073;-67
2023/05/21 09:47:26;;;;;;;7.82;4.63;;;24.90;88.20;;;25.81;73.58;100919.09;5164769;28;20435;-66
2023/05/21 09:49:58;;;;;;;7.75;4.80;;;24.80;88.70;;;25.86;74.98;100914.50;5164354;28;20121;-66
2023/05/21 09:52:31;;;;;;;9.02;4.63;;;24.80;90.10;;;25.71;74.45;100916.63;5164882;28;20046;-66
2023/05/21 09:55:04;;;;;;;7.75;4.85;;;24.80;89.60;;;25.56;75.48;100914.38;5164375;28;20042;-66
2023/05/21 09:57:42;;;;;;;8.70;5.50;;;24.60;90.10;;;25.44;75.60;100904.00;5164250;28;20046;-66
2023/05/21 10:00:20;;;;;;;7.15;4.50;;;24.50;90.20;;;25.38;75.33;100902.34;5145965;28;20050;-66
2023/05/21 10:02:56;;;;;;;9.73;5.00;;;24.40;90.00;;;25.37;75.35;100891.72;5164455;28;20070;-67
2023/05/21 10:05:30;;;;;;;8.63;5.13;;;24.40;90.20;;;25.31;75.78;100898.09;5164352;28;20521;-66
2023/05/21 10:08:04;;;;;;;9.75;5.35;;;24.40;90.30;;;25.19;76.56;100889.50;5164588;28;20518;-67
2023/05/21 10:10:40;;;;;;;8.05;5.15;;;24.30;90.60;;;25.24;77.46;100890.28;5164276;28;20053;-64
2023/05/21 10:13:14;;;;;;;8.75;5.28;;;24.30;91.00;;;25.30;77.67;100880.34;5164059;28;20050;-66
2023/05/21 10:15:52;;;;;;;9.15;5.70;;;24.40;91.30;;;25.27;78.01;100879.50;5187597;22;20061;-83
2023/05/21 10:18:25;;;;;;;8.90;5.15;;;24.40;91.30;;;25.22;78.81;100876.94;5146219;28;20057;-83
2023/05/21 10:20:58;;;;;;;9.60;6.30;;;24.30;91.80;;;25.10;79.02;100871.91;5166599;28;20038;-83
2023/05/21 10:23:31;;;;;;;8.73;5.30;;;24.20;91.80;;;25.14;79.84;100868.28;5163271;28;20048;-82
2023/05/21 10:26:05;;;;;;;10.57;5.72;;;24.20;92.30;;;25.34;79.74;100863.31;5144080;28;20042;-83
2023/05/21 10:28:37;;;;;;;9.60;5.80;;;24.40;92.40;;;25.56;78.91;100863.66;5159433;28;20047;-83
2023/05/21 10:31:10;;;;;;;11.60;6.70;;;24.60;92.10;;;25.66;77.80;100856.28;5161177;28;20050;-83
2023/05/21 10:33:43;;;;;;;11.57;6.40;;;24.70;91.60;;;25.62;78.39;100857.25;5154599;28;20022;-83
2023/05/21 10:36:17;;;;;;;8.35;5.38;;;24.70;91.70;;;25.65;77.67;100858.06;5152771;28;20057;-84